Pagrindinis puslapis
METAR-TAF:

METAR-TAF

Oro uostai :

Armenija, Kolumbija

platuma: 04-30N, ilguma: 075-43W, Aukštis: 1204 m

Dabartinis oras

Ataskaita buvo paskelbta 1 valandą ir 17 minutes, ne 13:00 UTC
Vėjas 3 kt iš Pietų/Pietvakarių
Temperatūra 22°C
Drėgmė 88%
Slėgis 1016 hPa
Matomumas 10 km arba daugiau
Su prošvaistėmis ne aukštis 1800 ft

METAR: SKAR 141300Z 21003KT 9999 BKN018 22/20 Q1016

Laikas: 09:17 (14:17 UTC)

Prognozė

Ataskaita buvo paskelbta 3 valandos ir 47 minutes, ne 10:30 UTC
Prognozė galioja nuo 14 metu 12 UTC su 15 metu 12 UTC
Vėjas kt iš Šiaurės
Matomumas 10 km arba daugiau
Išsisklaidę debesys ne aukštis 2000 ft
Laikinai
nuo 14 metu 18 UTC su 14 metu 21 UTC
Išsisklaidę debesys ne aukštis 2000 ft, aukštai iškilę kamuoliniai debesys.
Laikinai
nuo 14 metu 21 UTC su 14 metu 24 UTC
Išsisklaidę debesys ne aukštis 1700 ft, Liūtiniai kamuoliniai debesys.
perkūnija,

TAF: SKAR 141030Z 1412/1512 00000KT 9999 SCT020 TEMPO 1418/1421 SCT020TCU TEMPO 1421/1424 TS SCT017CB TX30/1420Z TN19/1510Z

Orai ataskaitas ir orų prognozės (METAR, TAF).

turimą stotys yra geltonos ir raudonos taškus žemėlapyje.

Perkelti pele per norėdami pamatyti stoties vardą.

Tada spustelėkite, norėdami matyti oro stebėjimo ir prognozės.

Norėdami pakeisti žemėlapį: spustelėkite ant žalios mygtukų su juodo kryžiaus žemyn,; žalią mygtuką su brūkšneliu, jei norite nutolinti; arba žalių rodyklių gretimoms žemėlapius.


METAR-TAF: